Time;durP1;ratioP1;P1;durP2;ratioP2;P2;SDS_P1;SDS_P2;PMS_P1;PMS_P2;Temp;Humidity;BMP_temperature;BMP_pressure;BME280_temperature;BME280_humidity;BME280_pressure;Samples;Min_cycle;Max_cycle;Signal;HPM_P1;HPM_P2
2021/06/21 00:00:25;;;;;;;9.77;7.32;;;;;;;24.86;58.23;99250.69;4390331;32;34397;-91
2021/06/21 00:03:01;;;;;;;7.55;6.85;;;;;;;24.59;59.15;99241.09;4392895;32;34255;-91
2021/06/21 00:05:29;;;;;;;8.05;6.82;;;;;;;24.80;58.37;99245.97;4405118;32;33084;-90
2021/06/21 00:07:59;;;;;;;9.02;7.28;;;;;;;24.75;58.48;99247.31;4405085;32;33466;-89
2021/06/21 00:10:27;;;;;;;6.97;6.37;;;;;;;24.55;59.18;99246.00;4405007;32;33454;-89
2021/06/21 00:12:55;;;;;;;8.25;7.28;;;;;;;24.61;58.93;99250.72;4381855;32;35603;-89
2021/06/21 00:15:25;;;;;;;7.40;6.75;;;;;;;24.68;58.86;99250.88;4400232;32;34123;-89
2021/06/21 00:17:54;;;;;;;7.57;6.68;;;;;;;24.45;59.67;99246.19;4400858;32;33691;-89
2021/06/21 00:20:22;;;;;;;9.45;7.15;;;;;;;24.66;58.93;99242.09;4394347;32;34648;-91
2021/06/21 00:22:54;;;;;;;7.00;6.43;;;;;;;24.57;59.17;99233.16;4406388;32;34707;-89
2021/06/21 00:25:23;;;;;;;9.05;6.28;;;;;;;24.52;59.45;99236.38;4406712;32;34493;-87
2021/06/21 00:27:52;;;;;;;9.18;7.47;;;;;;;24.52;59.43;99227.44;4397324;32;34417;-87
2021/06/21 00:30:21;;;;;;;6.95;6.35;;;;;;;24.36;59.86;99224.75;4406574;32;34820;-87
2021/06/21 00:32:49;;;;;;;7.72;6.75;;;;;;;24.47;59.35;99229.81;4394195;32;35562;-88
2021/06/21 00:35:20;;;;;;;8.27;7.07;;;;;;;24.63;58.79;99227.09;4406735;32;32876;-87
2021/06/21 00:37:49;;;;;;;8.60;6.95;;;;;;;24.60;58.83;99224.75;4404801;32;34345;-87
2021/06/21 00:40:19;;;;;;;7.07;6.45;;;;;;;24.38;59.62;99234.38;4396250;32;34528;-89
2021/06/21 00:42:48;;;;;;;9.20;6.97;;;;;;;24.43;59.50;99231.16;4399620;32;35216;-88
2021/06/21 00:45:17;;;;;;;7.82;6.45;;;;;;;24.59;59.02;99220.34;4406804;32;33063;-88
2021/06/21 00:47:47;;;;;;;7.68;6.87;;;;;;;24.47;59.46;99222.56;4382063;32;34064;-88
2021/06/21 00:50:15;;;;;;;8.05;7.30;;;;;;;24.24;60.34;99226.91;4406992;32;35043;-88
2021/06/21 00:52:43;;;;;;;8.07;7.05;;;;;;;24.17;60.71;99221.38;4397734;32;33625;-87
2021/06/21 00:55:13;;;;;;;8.05;6.95;;;;;;;24.21;60.51;99220.03;4406895;32;33917;-88
2021/06/21 00:57:41;;;;;;;6.75;6.15;;;;;;;24.21;60.38;99217.31;4383132;32;33077;-88
2021/06/21 01:00:11;;;;;;;7.28;6.60;;;;;;;24.20;60.42;99221.00;4406602;32;34484;-86
2021/06/21 01:02:40;;;;;;;7.53;6.82;;;;;;;24.34;59.84;99215.94;4406705;32;35532;-88
2021/06/21 01:05:27;;;;;;;10.38;6.90;;;;;;;24.22;60.23;99213.59;4387559;32;35501;-88
2021/06/21 01:07:55;;;;;;;8.20;6.55;;;;;;;24.17;60.76;99213.28;4380940;32;34860;-87
2021/06/21 01:10:27;;;;;;;7.25;6.55;;;;;;;23.99;61.10;99210.72;4393239;32;33669;-86
2021/06/21 01:13:24;;;;;;;9.10;7.25;;;;;;;24.04;60.80;99207.53;4405559;32;34845;-87
2021/06/21 01:16:17;;;;;;;7.93;7.10;;;;;;;23.76;61.87;99201.59;4406622;32;35529;-88
2021/06/21 01:19:11;;;;;;;7.40;6.72;;;;;;;23.90;61.26;99208.19;4357209;32;34396;-89
2021/06/21 01:22:16;;;;;;;7.85;6.75;;;;;;;24.12;60.52;99207.53;4354930;32;34675;-90
2021/06/21 01:25:04;;;;;;;7.68;6.87;;;;;;;24.23;60.03;99191.00;4406106;32;34301;-89
2021/06/21 01:27:41;;;;;;;7.70;6.95;;;;;;;23.87;61.28;99197.72;4392672;32;33586;-89
2021/06/21 01:30:19;;;;;;;8.05;7.25;;;;;;;23.86;61.42;99194.19;4394079;32;33543;-89
2021/06/21 01:32:48;;;;;;;8.88;7.97;;;;;;;23.91;61.23;99188.28;4394638;32;34316;-89
2021/06/21 01:35:40;;;;;;;7.82;7.05;;;;;;;23.96;60.82;99186.78;4393967;32;33819;-89
2021/06/21 01:38:13;;;;;;;7.25;6.55;;;;;;;23.62;61.94;99194.13;4399954;32;33703;-89
2021/06/21 01:40:45;;;;;;;7.62;6.97;;;;;;;23.81;61.36;99187.63;4406059;32;34325;-89
2021/06/21 01:43:14;;;;;;;;;;;;;;;23.67;61.68;99181.88;4404122;32;35171;-89
2021/06/21 01:45:43;;;;;;;7.97;7.28;;;;;;;23.58;62.09;99185.50;4400971;32;32481;-89
2021/06/21 01:48:13;;;;;;;8.07;7.25;;;;;;;23.57;61.96;99197.31;4403402;32;31874;-89
2021/06/21 01:50:41;;;;;;;7.55;6.85;;;;;;;23.70;61.45;99194.19;4406006;32;34187;-89
2021/06/21 01:53:15;;;;;;;7.47;6.78;;;;;;;23.77;61.15;99187.09;4405440;32;35266;-89
2021/06/21 01:55:57;;;;;;;7.93;7.15;;;;;;;23.89;60.85;99183.09;4405036;32;35676;-88
2021/06/21 01:58:26;;;;;;;7.97;7.18;;;;;;;23.68;61.51;99182.69;4404899;32;33426;-89
2021/06/21 02:00:54;;;;;;;9.13;7.32;;;;;;;23.58;61.83;99182.81;4387205;32;35628;-89
2021/06/21 02:03:23;;;;;;;8.25;7.07;;;;;;;23.73;61.37;99174.97;4405779;32;35797;-88
2021/06/21 02:05:51;;;;;;;8.40;6.57;;;;;;;23.67;61.43;99181.03;4388671;32;35693;-89
2021/06/21 02:08:21;;;;;;;8.30;7.32;;;;;;;23.38;62.52;99181.44;4398367;32;34917;-89
2021/06/21 02:10:51;;;;;;;11.00;7.45;;;;;;;23.33;62.52;99171.16;4406128;32;33755;-89
2021/06/21 02:13:22;;;;;;;9.73;8.82;;;;;;;23.37;62.41;99163.59;4405088;32;34711;-89
2021/06/21 02:15:50;;;;;;;10.13;7.22;;;;;;;23.32;62.58;99155.16;4386455;32;34982;-89
2021/06/21 02:18:19;;;;;;;8.35;7.45;;;;;;;23.35;62.37;99160.19;4405657;32;33155;-91
2021/06/21 02:20:48;;;;;;;7.62;6.68;;;;;;;23.47;61.87;99158.91;4392880;32;34196;-87
2021/06/21 02:23:18;;;;;;;8.30;7.37;;;;;;;23.39;62.16;99157.00;4405502;32;35463;-87
2021/06/21 02:25:49;;;;;;;8.23;7.00;;;;;;;23.33;62.46;99157.69;4405239;32;34372;-87
2021/06/21 02:28:18;;;;;;;9.27;7.20;;;;;;;23.40;62.20;99160.53;4399108;32;33209;-86
2021/06/21 02:30:51;;;;;;;7.95;7.15;;;;;;;23.21;62.91;99164.34;4405992;32;33520;-86
2021/06/21 02:33:19;;;;;;;8.35;7.40;;;;;;;23.35;62.30;99150.25;4406276;32;33501;-86
2021/06/21 02:35:48;;;;;;;8.73;7.30;;;;;;;23.39;61.99;99148.09;4398904;32;33834;-85
2021/06/21 02:38:16;;;;;;;7.95;7.05;;;;;;;23.30;62.10;99149.06;4392157;32;35661;-85
2021/06/21 02:40:44;;;;;;;9.02;6.65;;;;;;;23.22;62.36;99149.91;4384220;32;35440;-85
2021/06/21 02:43:12;;;;;;;8.35;7.30;;;;;;;23.20;62.41;99146.53;4392905;32;34712;-88
2021/06/21 02:45:40;;;;;;;9.50;7.47;;;;;;;23.22;62.38;99142.66;4405740;32;34635;-88
2021/06/21 02:48:10;;;;;;;8.20;7.15;;;;;;;23.36;61.96;99141.19;4405455;32;33404;-88
2021/06/21 02:50:45;;;;;;;7.62;6.87;;;;;;;23.38;61.92;99139.16;4406140;32;33054;-88
2021/06/21 02:53:52;;;;;;;7.82;7.03;;;;;;;23.23;62.51;99135.44;4396822;32;33672;-88
2021/06/21 02:56:38;;;;;;;9.52;8.13;;;;;;;23.21;62.61;99140.97;4317858;33;34715;-87
2021/06/21 02:59:15;;;;;;;8.70;7.90;;;;;;;23.40;61.82;99147.06;4378195;32;33445;-87
2021/06/21 03:01:50;;;;;;;9.63;8.63;;;;;;;23.23;62.27;99141.66;4396985;32;33708;-87
2021/06/21 03:04:19;;;;;;;8.10;7.30;;;;;;;23.16;62.58;99151.38;4393601;32;34575;-86
2021/06/21 03:06:48;;;;;;;9.75;7.30;;;;;;;23.09;62.67;99142.28;4405830;32;34785;-87
2021/06/21 03:09:18;;;;;;;8.23;7.43;;;;;;;23.11;62.63;99140.25;4405586;32;34214;-88
2021/06/21 03:11:49;;;;;;;8.95;8.05;;;;;;;23.05;62.75;99138.22;4392050;32;35828;-87
2021/06/21 03:14:21;;;;;;;8.07;7.28;;;;;;;23.06;62.71;99147.97;4390600;32;35686;-87
2021/06/21 03:16:54;;;;;;;8.40;7.60;;;;;;;22.95;63.26;99149.13;4405817;32;33988;-88
2021/06/21 03:19:22;;;;;;;7.35;6.72;;;;;;;23.10;62.94;99146.66;4393041;32;33487;-86
2021/06/21 03:21:51;;;;;;;8.70;6.97;;;;;;;23.12;63.17;99144.66;4397146;32;34565;-86
2021/06/21 03:24:24;;;;;;;8.07;7.28;;;;;;;23.24;62.70;99142.50;4405785;32;34272;-86
2021/06/21 03:26:53;;;;;;;10.15;7.78;;;;;;;23.20;62.96;99147.34;4392677;32;35675;-86
2021/06/21 03:29:21;;;;;;;10.45;7.97;;;;;;;23.22;62.78;99150.75;4405032;32;33417;-86
2021/06/21 03:31:53;;;;;;;8.50;7.50;;;;;;;23.30;62.55;99158.00;4405328;32;33589;-86
2021/06/21 03:34:22;;;;;;;;;;;;;;;23.40;62.29;99152.47;4404547;32;34074;-86
2021/06/21 03:36:51;;;;;;;8.90;7.40;;;;;;;23.29;63.06;99160.84;4391732;32;35197;-86
2021/06/21 03:39:18;;;;;;;7.95;7.15;;;;;;;23.59;61.95;99162.94;4405675;32;35213;-86
2021/06/21 03:41:47;;;;;;;8.50;7.47;;;;;;;23.70;61.48;99168.06;4404622;32;33740;-86
2021/06/21 03:44:14;;;;;;;9.95;7.57;;;;;;;23.65;61.90;99175.81;4404634;32;34045;-86
2021/06/21 03:46:43;;;;;;;11.45;8.55;;;;;;;23.40;63.03;99174.00;4404615;32;34010;-87
2021/06/21 03:49:12;;;;;;;8.88;8.00;;;;;;;23.32;63.47;99166.78;4404934;32;34008;-86
2021/06/21 03:51:40;;;;;;;8.48;7.25;;;;;;;23.29;63.83;99166.25;4407512;32;34445;-86
2021/06/21 03:54:08;;;;;;;8.40;7.05;;;;;;;23.48;63.39;99168.66;4392831;32;34522;-86
2021/06/21 03:56:36;;;;;;;12.57;8.82;;;;;;;23.71;62.41;99166.22;4399139;32;33978;-86
2021/06/21 03:59:03;;;;;;;9.95;8.30;;;;;;;23.79;62.25;99166.22;4404964;32;33163;-87
2021/06/21 04:01:31;;;;;;;14.52;8.63;;;;;;;23.92;62.40;99152.22;4405240;32;33194;-86
2021/06/21 04:03:59;;;;;;;9.93;8.32;;;;;;;23.98;62.22;99163.19;4391567;32;35510;-87
2021/06/21 04:06:27;;;;;;;11.57;7.20;;;;;;;24.00;62.43;99161.16;4390958;32;34617;-87
2021/06/21 04:08:55;;;;;;;7.85;7.03;;;;;;;24.09;61.63;99164.72;4405591;32;33981;-88
2021/06/21 04:11:26;;;;;;;8.75;7.55;;;;;;;24.34;60.72;99167.38;4391427;32;34258;-88
2021/06/21 04:13:54;;;;;;;12.57;7.47;;;;;;;24.53;60.13;99162.50;4390248;32;34760;-88
2021/06/21 04:16:22;;;;;;;6.87;6.28;;;;;;;24.64;59.63;99163.13;4403591;32;35944;-88
2021/06/21 04:18:50;;;;;;;7.20;6.55;;;;;;;24.88;58.94;99164.94;4391959;32;33741;-87
2021/06/21 04:21:17;;;;;;;7.70;6.93;;;;;;;25.04;58.68;99167.56;4385487;32;34266;-88
2021/06/21 04:23:45;;;;;;;9.48;6.87;;;;;;;24.95;57.93;99161.34;4405346;32;35206;-88
2021/06/21 04:26:14;;;;;;;8.95;6.40;;;;;;;25.04;58.65;99165.72;4379631;32;35828;-87
2021/06/21 04:28:41;;;;;;;7.05;6.37;;;;;;;25.29;57.90;99161.06;4404178;32;33037;-88
2021/06/21 04:31:10;;;;;;;9.45;7.03;;;;;;;25.45;56.69;99167.44;4379526;32;35452;-87
2021/06/21 04:33:38;;;;;;;8.25;6.30;;;;;;;25.56;56.71;99174.28;4388952;32;33712;-87
2021/06/21 04:36:06;;;;;;;7.95;6.65;;;;;;;25.87;55.28;99172.38;4386694;32;34880;-87
2021/06/21 04:38:34;;;;;;;8.57;5.68;;;;;;;25.78;56.07;99179.75;4395737;32;33851;-87
2021/06/21 04:41:03;;;;;;;6.07;5.50;;;;;;;26.08;54.02;99163.63;4400405;32;34311;-86
2021/06/21 04:43:31;;;;;;;8.05;5.68;;;;;;;26.08;53.93;99174.44;4400463;32;33319;-87
2021/06/21 04:45:59;;;;;;;9.13;7.25;;;;;;;26.03;54.34;99166.03;4390764;32;32790;-86
2021/06/21 04:48:27;;;;;;;9.25;5.82;;;;;;;26.17;54.07;99159.81;4406387;32;33073;-87
2021/06/21 04:50:55;;;;;;;8.95;5.50;;;;;;;26.28;53.34;99155.81;4389367;32;34310;-86
2021/06/21 04:53:23;;;;;;;6.55;5.87;;;;;;;26.36;53.55;99165.75;4381883;32;35461;-86
2021/06/21 04:55:51;;;;;;;8.75;5.95;;;;;;;26.36;53.57;99165.75;4391848;32;34367;-87
2021/06/21 04:58:18;;;;;;;7.55;6.62;;;;;;;26.38;53.86;99164.53;4391696;32;33265;-87
2021/06/21 05:00:46;;;;;;;23.12;6.05;;;;;;;26.22;54.48;99164.69;4384821;32;36050;-87
2021/06/21 05:03:14;;;;;;;7.80;6.07;;;;;;;26.36;54.34;99161.16;4382260;32;34514;-87
2021/06/21 05:05:42;;;;;;;8.07;5.93;;;;;;;26.57;53.69;99162.34;4398332;32;31982;-86
2021/06/21 05:08:09;;;;;;;6.65;5.80;;;;;;;26.62;53.63;99165.34;4394912;32;35303;-86
2021/06/21 05:10:38;;;;;;;8.07;5.93;;;;;;;26.69;53.59;99169.84;4403771;32;34936;-86
2021/06/21 05:13:05;;;;;;;10.00;6.10;;;;;;;26.79;53.47;99162.25;4381646;32;33196;-86
2021/06/21 05:15:34;;;;;;;9.43;6.10;;;;;;;26.76;54.27;99162.63;4390470;32;32992;-86
2021/06/21 05:18:02;;;;;;;8.55;5.95;;;;;;;26.67;54.62;99163.75;4394439;32;32209;-87
2021/06/21 05:20:31;;;;;;;19.98;7.10;;;;;;;26.80;52.91;99166.66;4378856;32;33746;-87
2021/06/21 05:22:59;;;;;;;11.82;6.37;;;;;;;26.80;52.93;99168.53;4408897;32;33720;-87
2021/06/21 05:25:28;;;;;;;10.70;7.28;;;;;;;27.06;52.54;99171.59;4397619;32;34796;-87
2021/06/21 05:27:56;;;;;;;8.45;7.18;;;;;;;27.26;52.88;99174.59;4398292;32;33649;-87
2021/06/21 05:30:24;;;;;;;10.48;7.60;;;;;;;27.56;51.22;99164.50;4379901;32;32946;-87
2021/06/21 05:32:53;;;;;;;15.43;7.50;;;;;;;27.45;51.74;99162.31;4396807;32;34819;-87
2021/06/21 05:35:21;;;;;;;7.65;6.72;;;;;;;27.71;51.15;99164.50;4393469;32;33685;-87
2021/06/21 05:37:50;;;;;;;12.40;7.47;;;;;;;27.19;50.66;99160.09;4395893;32;31437;-87
2021/06/21 05:40:18;;;;;;;9.50;8.05;;;;;;;27.35;51.21;99166.34;4379931;32;32830;-86
2021/06/21 05:42:46;;;;;;;8.90;7.75;;;;;;;27.39;51.34;99160.34;4378114;32;35509;-87
2021/06/21 05:45:16;;;;;;;11.05;7.85;;;;;;;27.31;51.83;99171.31;4381327;32;34536;-87
2021/06/21 05:47:45;;;;;;;19.70;7.35;;;;;;;27.30;52.29;99170.47;4395444;32;34749;-87
2021/06/21 05:50:13;;;;;;;12.95;8.32;;;;;;;27.47;51.22;99172.97;4393641;32;33215;-87
2021/06/21 05:52:41;;;;;;;10.02;7.82;;;;;;;27.80;50.40;99160.63;4407483;32;32017;-87
2021/06/21 05:55:09;;;;;;;9.65;7.95;;;;;;;27.72;50.93;99163.44;4393401;32;36625;-88
2021/06/21 05:57:37;;;;;;;12.77;8.35;;;;;;;27.80;51.45;99171.47;4392736;32;32702;-86
2021/06/21 06:00:06;;;;;;;12.00;8.70;;;;;;;28.02;50.55;99171.50;4393259;32;33620;-86
2021/06/21 06:02:43;;;;;;;15.18;9.80;;;;;;;28.02;51.23;99177.75;4398546;32;34627;-86
2021/06/21 06:05:12;;;;;;;16.62;7.97;;;;;;;27.97;50.79;99172.06;4396119;32;34693;-86
2021/06/21 06:07:40;;;;;;;11.40;8.15;;;;;;;28.09;51.43;99175.09;4406207;32;34624;-86
2021/06/21 06:10:09;;;;;;;11.40;7.35;;;;;;;28.61;47.97;99184.72;4406043;32;33594;-85
2021/06/21 06:12:37;;;;;;;13.23;6.72;;;;;;;28.57;48.32;99188.88;4379942;32;36167;-86
2021/06/21 06:15:05;;;;;;;15.02;6.75;;;;;;;28.55;48.78;99185.53;4397871;32;34057;-87
2021/06/21 06:17:34;;;;;;;10.13;6.05;;;;;;;28.70;47.26;99188.97;4392400;32;33248;-86
2021/06/21 06:20:02;;;;;;;6.12;5.50;;;;;;;28.46;47.61;99189.44;4390785;32;33672;-85
2021/06/21 06:22:30;;;;;;;11.02;5.70;;;;;;;28.60;46.72;99195.81;4381793;32;34781;-86
2021/06/21 06:24:58;;;;;;;5.32;4.82;;;;;;;28.58;45.99;99185.97;4390621;32;33531;-85
2021/06/21 06:27:27;;;;;;;5.95;4.35;;;;;;;28.61;45.12;99184.72;4389974;32;32912;-86
2021/06/21 06:29:55;;;;;;;4.53;4.12;;;;;;;28.77;44.67;99186.28;4392658;32;32071;-86
2021/06/21 06:32:23;;;;;;;4.85;3.67;;;;;;;28.70;44.53;99188.13;4388620;32;33561;-87
2021/06/21 06:34:51;;;;;;;14.80;5.05;;;;;;;28.58;44.62;99187.81;4376940;32;35734;-86
2021/06/21 06:37:19;;;;;;;5.43;4.10;;;;;;;28.52;44.23;99191.34;4402726;32;34831;-86
2021/06/21 06:39:47;;;;;;;5.37;3.58;;;;;;;28.62;44.16;99183.69;4400684;32;34608;-88
2021/06/21 06:42:14;;;;;;;5.32;4.32;;;;;;;28.94;43.45;99189.53;4389357;32;32011;-88
2021/06/21 06:44:45;;;;;;;4.22;3.80;;;;;;;28.72;45.26;99196.91;4399944;32;34466;-87
2021/06/21 06:47:13;;;;;;;8.75;3.53;;;;;;;28.76;43.14;99188.16;4400800;32;32734;-86
2021/06/21 06:49:41;;;;;;;9.30;4.18;;;;;;;28.76;43.44;99182.72;4398655;32;31977;-85
2021/06/21 06:52:10;;;;;;;7.15;4.00;;;;;;;29.40;42.41;99173.47;4378964;32;34563;-85
2021/06/21 06:54:46;;;;;;;5.72;3.65;;;;;;;29.37;42.75;99173.88;4388923;32;33842;-85
2021/06/21 06:57:14;;;;;;;5.53;3.37;;;;;;;29.18;42.39;99180.91;4392971;32;34473;-85
2021/06/21 06:59:42;;;;;;;8.10;3.90;;;;;;;29.52;42.44;99176.44;4405502;32;33786;-85
2021/06/21 07:02:17;;;;;;;5.28;3.28;;;;;;;29.89;41.28;99177.81;4380132;32;34710;-85
2021/06/21 07:04:44;;;;;;;4.90;3.35;;;;;;;29.74;41.79;99174.44;4386528;32;34742;-85
2021/06/21 07:07:13;;;;;;;6.70;3.62;;;;;;;30.08;41.55;99170.72;4376566;32;35269;-85
2021/06/21 07:09:43;;;;;;;6.10;3.67;;;;;;;30.00;42.90;99174.47;4388214;32;33240;-85
2021/06/21 07:12:11;;;;;;;9.93;4.30;;;;;;;29.91;42.53;99164.00;4391466;32;32742;-85
2021/06/21 07:14:39;;;;;;;4.07;3.15;;;;;;;30.55;41.79;99171.59;4378637;32;34209;-85
2021/06/21 07:17:07;;;;;;;6.28;4.07;;;;;;;30.71;40.30;99170.34;4394679;32;33282;-85
2021/06/21 07:19:36;;;;;;;5.93;4.05;;;;;;;30.77;40.50;99170.34;4387807;32;33186;-85
2021/06/21 07:22:04;;;;;;;12.20;4.65;;;;;;;30.98;40.24;99165.66;4389645;32;34490;-84
2021/06/21 07:24:32;;;;;;;5.25;4.32;;;;;;;30.89;41.44;99161.50;4373750;32;34005;-84
2021/06/21 07:27:00;;;;;;;4.57;4.00;;;;;;;30.63;40.81;99156.91;4375896;32;34022;-85
2021/06/21 07:29:28;;;;;;;7.07;4.03;;;;;;;30.78;40.88;99166.56;4379064;32;34619;-85
2021/06/21 07:31:56;;;;;;;9.00;4.53;;;;;;;30.93;41.39;99166.31;4366271;32;35092;-84
2021/06/21 07:34:25;;;;;;;7.57;4.15;;;;;;;31.68;38.34;99155.72;4375245;32;33292;-85
2021/06/21 07:36:52;;;;;;;5.60;4.15;;;;;;;31.30;38.63;99161.19;4388574;32;33959;-84
2021/06/21 07:39:20;;;;;;;4.97;4.05;;;;;;;31.06;38.77;99158.09;4390681;32;33982;-84
2021/06/21 07:41:48;;;;;;;5.87;3.60;;;;;;;30.92;38.46;99161.06;4363800;32;33201;-84
2021/06/21 07:44:16;;;;;;;6.30;4.10;;;;;;;30.64;39.11;99158.59;4373426;32;33660;-84
2021/06/21 07:46:45;;;;;;;6.97;4.70;;;;;;;30.90;39.89;99164.00;4344541;32;34441;-84
2021/06/21 07:49:13;;;;;;;8.35;4.43;;;;;;;31.33;38.22;99164.31;4382784;32;33017;-85
2021/06/21 07:51:43;;;;;;;4.87;4.32;;;;;;;31.20;39.59;99160.78;4372856;32;33098;-84
2021/06/21 07:54:14;;;;;;;7.05;4.10;;;;;;;31.27;37.21;99148.78;4381967;32;34472;-86
2021/06/21 07:56:42;;;;;;;4.45;4.00;;;;;;;31.29;38.91;99151.31;4371722;32;32047;-84
2021/06/21 07:59:10;;;;;;;4.80;4.07;;;;;;;31.66;37.97;99146.91;4384541;32;33258;-85
2021/06/21 08:01:38;;;;;;;8.85;3.83;;;;;;;31.75;37.63;99150.22;4385220;32;33154;-88
2021/06/21 08:04:07;;;;;;;8.00;3.85;;;;;;;31.54;36.73;99148.66;4372874;32;32133;-89
2021/06/21 08:06:37;;;;;;;13.62;4.37;;;;;;;31.75;36.79;99150.22;4383240;32;35116;-88
2021/06/21 08:09:05;;;;;;;6.65;4.07;;;;;;;31.51;37.12;99146.38;4370536;32;32204;-88
2021/06/21 08:11:33;;;;;;;8.02;4.40;;;;;;;31.83;36.49;99145.38;4369975;32;33658;-88
2021/06/21 08:14:01;;;;;;;7.95;4.47;;;;;;;32.02;37.65;99151.75;4356014;32;35786;-88
2021/06/21 08:16:29;;;;;;;7.65;4.80;;;;;;;32.18;37.44;99141.31;4380328;32;33190;-87
2021/06/21 08:18:58;;;;;;;3.97;3.53;;;;;;;32.56;35.89;99133.84;4377774;32;34778;-88
2021/06/21 08:21:26;;;;;;;7.80;3.12;;;;;;;32.23;36.27;99136.03;4378693;32;33702;-88
2021/06/21 08:23:55;;;;;;;10.95;3.72;;;;;;;32.31;36.00;99136.56;4375584;32;36074;-88
2021/06/21 08:26:23;;;;;;;4.35;3.50;;;;;;;32.42;35.49;99129.56;4394271;32;34493;-87
2021/06/21 08:28:52;;;;;;;8.43;3.50;;;;;;;32.37;36.07;99129.41;4367289;32;33486;-88
2021/06/21 08:31:19;;;;;;;3.45;3.00;;;;;;;32.35;36.39;99128.78;4380322;32;33186;-88
2021/06/21 08:33:48;;;;;;;4.30;3.30;;;;;;;32.12;36.22;99126.66;4391810;32;33313;-85
2021/06/21 08:36:15;;;;;;;4.55;2.95;;;;;;;32.42;36.25;99129.56;4392297;32;34210;-85
2021/06/21 08:38:43;;;;;;;6.10;3.70;;;;;;;32.57;35.49;99126.47;4370640;32;34833;-84
2021/06/21 08:41:11;;;;;;;3.37;2.67;;;;;;;32.56;36.05;99122.06;4385624;32;33981;-84
2021/06/21 08:43:40;;;;;;;6.12;3.05;;;;;;;32.92;35.20;99123.19;4379253;32;34323;-85
2021/06/21 08:46:08;;;;;;;3.12;2.87;;;;;;;32.58;36.53;99114.50;4387884;32;34281;-84
2021/06/21 08:48:41;;;;;;;4.90;2.92;;;;;;;32.50;34.54;99115.63;4397186;32;33051;-84
2021/06/21 08:51:11;;;;;;;4.93;2.90;;;;;;;32.19;37.84;99113.81;4385855;32;35483;-84
2021/06/21 08:53:39;;;;;;;8.73;3.25;;;;;;;32.28;36.71;99115.16;4377866;32;33439;-84
2021/06/21 08:56:08;;;;;;;6.05;3.90;;;;;;;32.24;36.32;99115.88;4379814;32;34057;-84
2021/06/21 08:58:36;;;;;;;6.85;2.92;;;;;;;32.41;38.19;99110.69;4403141;32;33469;-84
2021/06/21 09:01:04;;;;;;;8.30;3.12;;;;;;;32.46;36.38;99105.38;4379855;32;32948;-84
2021/06/21 09:03:43;;;;;;;5.22;2.62;;;;;;;32.76;36.25;99120.00;4400950;32;33465;-84
2021/06/21 09:06:20;;;;;;;3.33;2.87;;;;;;;33.09;33.95;99107.81;4402702;32;31475;-85
2021/06/21 09:08:53;;;;;;;3.47;2.92;;;;;;;32.80;35.24;99120.34;4387370;32;34269;-84
2021/06/21 09:11:45;;;;;;;4.40;2.90;;;;;;;33.09;34.17;99114.16;4402275;32;33531;-84
2021/06/21 09:14:25;;;;;;;5.30;3.37;;;;;;;33.45;33.58;99104.22;4382156;32;33519;-84
2021/06/21 09:17:07;;;;;;;5.10;3.00;;;;;;;33.06;33.96;99102.84;4394781;32;33122;-84
2021/06/21 09:19:57;;;;;;;5.35;3.17;;;;;;;33.08;34.58;99097.97;4402934;32;34148;-84
2021/06/21 09:22:40;;;;;;;5.68;3.42;;;;;;;32.84;35.07;99106.00;4401181;32;33807;-85
2021/06/21 09:25:17;;;;;;;9.65;3.22;;;;;;;33.22;34.08;99107.66;4403516;32;34905;-84
2021/06/21 09:28:00;;;;;;;6.25;3.10;;;;;;;33.87;34.50;99105.06;4400261;32;31758;-84
2021/06/21 09:30:30;;;;;;;4.40;3.25;;;;;;;33.52;34.17;99095.91;4390409;32;34977;-85
2021/06/21 09:32:59;;;;;;;5.68;3.17;;;;;;;33.64;34.14;99099.53;4388125;32;35857;-84
2021/06/21 09:35:30;;;;;;;8.50;2.87;;;;;;;33.77;33.14;99102.06;4402208;32;34131;-85
2021/06/21 09:38:03;;;;;;;;;;;;;;;33.49;34.26;99090.91;4405935;32;34400;-85
2021/06/21 09:40:36;;;;;;;10.02;3.20;;;;;;;33.69;35.79;99094.19;4405211;32;33680;-84
2021/06/21 09:43:26;;;;;;;4.53;3.47;;;;;;;33.38;33.17;99079.66;4398426;32;34626;-84
2021/06/21 09:46:12;;;;;;;4.85;3.10;;;;;;;34.27;32.65;99096.19;4408111;32;34625;-84
2021/06/21 09:48:52;;;;;;;9.02;2.95;;;;;;;34.45;31.83;99089.75;4381068;32;31359;-84
2021/06/21 09:51:25;;;;;;;4.37;2.45;;;;;;;34.56;33.61;99082.62;4383638;32;35278;-84
2021/06/21 09:53:59;;;;;;;7.35;2.85;;;;;;;34.61;31.45;99089.06;4395745;32;33919;-84
2021/06/21 09:56:30;;;;;;;6.35;3.20;;;;;;;33.97;32.74;99093.56;4398603;32;34818;-84
2021/06/21 09:58:58;;;;;;;7.75;3.28;;;;;;;33.88;32.52;99095.75;4404809;32;33713;-85
2021/06/21 10:01:30;;;;;;;3.35;2.85;;;;;;;33.70;32.79;99086.78;4403543;32;33228;-84
2021/06/21 10:03:59;;;;;;;7.22;3.30;;;;;;;34.16;34.39;99086.06;4394372;32;35283;-84
2021/06/21 10:06:36;;;;;;;4.03;2.97;;;;;;;34.07;31.71;99085.59;4407202;32;33979;-84
2021/06/21 10:09:05;;;;;;;7.95;3.22;;;;;;;33.97;32.76;99074.38;4386502;32;33998;-84
2021/06/21 10:11:35;;;;;;;5.68;3.20;;;;;;;34.21;33.39;99077.13;4406387;32;33623;-84
2021/06/21 10:14:09;;;;;;;3.95;3.50;;;;;;;33.99;34.77;99076.88;4404506;32;33674;-84
2021/06/21 10:16:37;;;;;;;3.58;2.97;;;;;;;33.96;33.11;99069.16;4400294;32;35206;-84
2021/06/21 10:19:06;;;;;;;5.47;3.30;;;;;;;33.79;32.47;99075.28;4398175;32;33331;-85
2021/06/21 10:21:37;;;;;;;4.80;3.00;;;;;;;34.36;32.10;99075.56;4392701;32;33728;-85
2021/06/21 10:24:05;;;;;;;6.85;3.25;;;;;;;34.59;32.32;99068.44;4396137;32;34211;-84
2021/06/21 10:26:40;;;;;;;9.70;3.37;;;;;;;35.15;30.77;99072.38;4389245;32;32990;-84
2021/06/21 10:29:09;;;;;;;6.18;3.33;;;;;;;34.51;32.63;99077.03;4389935;32;32689;-85
2021/06/21 10:31:36;;;;;;;6.30;3.30;;;;;;;34.37;31.55;99073.66;4390229;32;33221;-85
2021/06/21 10:34:07;;;;;;;3.58;3.28;;;;;;;34.50;32.33;99069.88;4386668;32;34332;-83
2021/06/21 10:36:56;;;;;;;6.87;3.87;;;;;;;34.19;31.39;99077.38;4391444;32;33752;-87
2021/06/21 10:39:33;;;;;;;8.13;3.30;;;;;;;34.14;32.64;99074.53;4389345;32;35628;-87
2021/06/21 10:42:05;;;;;;;5.45;3.25;;;;;;;34.62;32.12;99067.97;4377451;32;35385;-83
2021/06/21 10:44:55;;;;;;;5.97;3.75;;;;;;;34.88;30.35;99069.31;4390728;32;33732;-85
2021/06/21 10:47:30;;;;;;;5.40;3.65;;;;;;;34.77;30.69;99064.72;4379462;32;34890;-86
2021/06/21 10:50:02;;;;;;;5.75;3.37;;;;;;;34.86;31.32;99072.31;4390599;32;34868;-84
2021/06/21 10:52:33;;;;;;;3.80;3.42;;;;;;;35.07;30.37;99064.53;4391963;32;33339;-84
2021/06/21 10:55:33;;;;;;;4.03;3.10;;;;;;;35.52;33.51;99064.59;4391461;32;33454;-83
2021/06/21 10:58:29;;;;;;;7.78;3.35;;;;;;;35.64;29.06;99053.53;4390401;32;33684;-83
2021/06/21 11:01:11;;;;;;;5.57;3.28;;;;;;;35.63;29.95;99054.63;4387425;32;33371;-83
2021/06/21 11:03:39;;;;;;;5.00;2.58;;;;;;;35.27;29.86;99051.19;4389222;32;34545;-83
2021/06/21 11:06:09;;;;;;;3.30;3.00;;;;;;;35.26;30.35;99057.75;4390807;32;33770;-83
2021/06/21 11:08:42;;;;;;;6.90;3.67;;;;;;;34.84;30.46;99060.75;4394163;32;33596;-83
2021/06/21 11:11:36;;;;;;;7.20;3.78;;;;;;;34.74;32.97;99055.06;4390203;32;32922;-86
2021/06/21 11:14:21;;;;;;;8.40;3.03;;;;;;;35.47;29.87;99048.03;4392277;32;34589;-83
2021/06/21 11:16:52;;;;;;;5.43;3.35;;;;;;;35.12;30.68;99048.16;4376668;32;33920;-85
2021/06/21 11:19:22;;;;;;;4.93;3.35;;;;;;;35.39;31.47;99049.22;4393454;32;33467;-83
2021/06/21 11:21:53;;;;;;;6.93;3.70;;;;;;;35.52;30.07;99050.03;4392902;32;34260;-83
2021/06/21 11:24:36;;;;;;;4.40;3.00;;;;;;;35.58;29.91;99043.56;4404966;32;33702;-83
2021/06/21 11:27:06;;;;;;;4.10;3.53;;;;;;;35.20;31.28;99045.03;4398773;32;34449;-83
2021/06/21 11:29:37;;;;;;;5.12;2.83;;;;;;;35.59;30.08;99039.72;4401570;32;33876;-83
2021/06/21 11:32:06;;;;;;;4.82;3.20;;;;;;;35.55;29.50;99033.06;4406946;32;34279;-83
2021/06/21 11:35:00;;;;;;;7.65;3.60;;;;;;;35.57;29.84;99030.91;4405655;32;34305;-83
2021/06/21 11:37:28;;;;;;;6.35;3.67;;;;;;;35.21;32.72;99024.75;4406975;32;34384;-83
2021/06/21 11:40:23;;;;;;;9.68;3.70;;;;;;;35.58;31.38;99022.41;4398066;32;35638;-82
2021/06/21 11:42:57;;;;;;;8.02;3.60;;;;;;;35.88;29.33;99008.34;4393275;32;35600;-83
2021/06/21 11:45:52;;;;;;;4.05;3.40;;;;;;;35.65;29.34;99022.25;4412779;32;33563;-83
2021/06/21 11:48:22;;;;;;;5.25;3.40;;;;;;;35.76;28.66;99013.09;4409322;32;34771;-83
2021/06/21 11:50:51;;;;;;;6.53;3.37;;;;;;;35.52;29.67;99012.44;4407348;32;32782;-83
2021/06/21 11:53:19;;;;;;;4.57;3.53;;;;;;;35.75;29.32;99005.97;4411375;32;33476;-84